Time;durP1;ratioP1;P1;durP2;ratioP2;P2;SDS_P1;SDS_P2;PMS_P1;PMS_P2;Temp;Humidity;BMP_temperature;BMP_pressure;BME280_temperature;BME280_humidity;BME280_pressure;Samples;Min_cycle;Max_cycle;Signal;HPM_P1;HPM_P2
2021/03/29 00:00:32;;;;;;;3.63;2.70;;;7.30;99.90;;;;;;5012876;28;20195;-77
2021/03/29 00:03:00;;;;;;;3.53;3.00;;;7.30;99.90;;;;;;5012546;28;20194;-77
2021/03/29 00:05:29;;;;;;;3.80;2.83;;;7.30;99.90;;;;;;5012578;28;20610;-76
2021/03/29 00:08:04;;;;;;;3.63;3.13;;;7.30;99.90;;;;;;5004850;28;20283;-77
2021/03/29 00:10:31;;;;;;;4.03;2.90;;;7.40;99.90;;;;;;4999547;28;20193;-76
2021/03/29 00:12:58;;;;;;;4.13;2.80;;;7.30;99.90;;;;;;5012682;28;20184;-77
2021/03/29 00:15:33;;;;;;;4.40;2.50;;;7.40;99.90;;;;;;5012295;28;20210;-76
2021/03/29 00:17:59;;;;;;;4.30;2.90;;;7.30;99.90;;;;;;5012841;28;20187;-77
2021/03/29 00:20:29;;;;;;;5.43;2.70;;;7.30;99.90;;;;;;5012361;28;20190;-76
2021/03/29 00:22:56;;;;;;;3.27;2.97;;;7.20;99.90;;;;;;5011428;28;20177;-76
2021/03/29 00:25:27;;;;;;;4.10;2.73;;;7.20;99.90;;;;;;5011163;28;20666;-76
2021/03/29 00:27:53;;;;;;;4.87;3.10;;;7.20;99.90;;;;;;5012379;28;20203;-77
2021/03/29 00:30:25;;;;;;;5.30;2.70;;;7.10;99.90;;;;;;5015467;28;20176;-77
2021/03/29 00:32:52;;;;;;;4.57;2.93;;;7.10;99.90;;;;;;5015631;28;20177;-77
2021/03/29 00:35:19;;;;;;;3.90;2.67;;;7.10;99.90;;;;;;5016488;28;20199;-76
2021/03/29 00:37:48;;;;;;;4.60;3.10;;;7.00;99.90;;;;;;5016926;28;20181;-77
2021/03/29 00:40:15;;;;;;;3.60;2.70;;;7.00;99.90;;;;;;5016390;28;20183;-76
2021/03/29 00:42:42;;;;;;;3.60;2.77;;;6.90;99.90;;;;;;5014869;28;20533;-77
2021/03/29 00:45:11;;;;;;;6.13;3.10;;;6.80;99.90;;;;;;5016045;28;20672;-75
2021/03/29 00:47:39;;;;;;;3.53;2.67;;;6.70;99.90;;;;;;5015905;28;20639;-76
2021/03/29 00:50:15;;;;;;;3.67;2.70;;;6.60;99.90;;;;;;5016231;28;20179;-76
2021/03/29 00:52:41;;;;;;;4.03;3.03;;;6.60;99.90;;;;;;5016076;28;20209;-75
2021/03/29 00:55:09;;;;;;;3.00;2.70;;;6.60;99.90;;;;;;5015943;28;20687;-75
2021/03/29 00:57:37;;;;;;;3.17;2.80;;;6.60;99.90;;;;;;5016362;28;20209;-77
2021/03/29 01:00:20;;;;;;;3.87;2.57;;;6.60;99.90;;;;;;5014604;28;20189;-76
2021/03/29 01:02:46;;;;;;;5.00;2.70;;;6.60;99.90;;;;;;5015676;28;20191;-77
2021/03/29 01:05:20;;;;;;;4.00;2.50;;;6.60;99.90;;;;;;5015554;28;20196;-76
2021/03/29 01:07:49;;;;;;;4.23;2.87;;;6.50;99.90;;;;;;5009091;28;20282;-77
2021/03/29 01:10:15;;;;;;;2.70;2.50;;;6.50;99.90;;;;;;5014394;28;20171;-76
2021/03/29 01:12:42;;;;;;;4.37;2.73;;;6.50;99.90;;;;;;5014524;28;20229;-76
2021/03/29 01:15:18;;;;;;;3.20;2.67;;;6.30;99.90;;;;;;5015356;28;20246;-76
2021/03/29 01:17:46;;;;;;;3.60;3.03;;;6.10;99.90;;;;;;5015617;28;20179;-76
2021/03/29 01:20:49;;;;;;;4.17;2.70;;;6.00;99.90;;;;;;5015367;28;20191;-76
2021/03/29 01:23:18;;;;;;;3.73;2.80;;;5.90;99.90;;;;;;5015550;28;20182;-76
2021/03/29 01:25:49;;;;;;;3.70;2.83;;;5.90;99.90;;;;;;5015369;28;20241;-76
2021/03/29 01:28:22;;;;;;;5.10;2.67;;;5.90;99.90;;;;;;5015589;28;20600;-80
2021/03/29 01:30:49;;;;;;;4.57;2.50;;;5.90;99.90;;;;;;5017461;28;20182;-79
2021/03/29 01:33:16;;;;;;;5.60;3.03;;;6.00;99.90;;;;;;5016480;28;20734;-77
2021/03/29 01:36:02;;;;;;;4.37;2.80;;;6.00;99.90;;;;;;5015463;28;20203;-79
2021/03/29 01:38:30;;;;;;;3.93;2.53;;;6.00;99.90;;;;;;5015265;28;20190;-77
2021/03/29 01:41:00;;;;;;;4.57;2.83;;;6.10;99.90;;;;;;5015574;28;20266;-76
2021/03/29 01:43:27;;;;;;;3.97;2.87;;;6.20;99.90;;;;;;5017096;28;20183;-75
2021/03/29 01:45:54;;;;;;;4.90;2.63;;;6.10;99.90;;;;;;5015452;28;20320;-80
2021/03/29 01:48:21;;;;;;;4.97;2.57;;;6.10;99.90;;;;;;5012152;28;20337;-77
2021/03/29 01:50:47;;;;;;;5.50;2.80;;;5.90;99.90;;;;;;5009734;28;20186;-76
2021/03/29 01:53:14;;;;;;;3.57;2.70;;;5.90;99.90;;;;;;5016465;28;20183;-75
2021/03/29 01:55:41;;;;;;;4.53;2.70;;;5.90;99.90;;;;;;5014975;28;20289;-75
2021/03/29 01:58:08;;;;;;;4.53;2.93;;;5.80;99.90;;;;;;5014739;28;20197;-75
2021/03/29 02:00:41;;;;;;;5.20;2.63;;;5.70;99.90;;;;;;5014673;28;20185;-74
2021/03/29 02:03:09;;;;;;;3.63;2.73;;;5.70;99.90;;;;;;5014501;28;20190;-74
2021/03/29 02:05:35;;;;;;;5.87;3.03;;;5.70;99.90;;;;;;5013246;28;20197;-75
2021/03/29 02:08:02;;;;;;;3.07;2.70;;;5.70;99.90;;;;;;5005943;28;20210;-75
2021/03/29 02:10:31;;;;;;;5.30;2.90;;;5.70;99.90;;;;;;4995136;28;20172;-75
2021/03/29 02:13:05;;;;;;;4.23;2.97;;;5.70;99.90;;;;;;4991760;28;20598;-75
2021/03/29 02:15:32;;;;;;;3.97;2.63;;;5.70;99.90;;;;;;4998746;28;20724;-75
2021/03/29 02:18:00;;;;;;;3.90;3.40;;;5.70;99.90;;;;;;5012495;28;20205;-75
2021/03/29 02:20:31;;;;;;;3.27;2.30;;;5.70;99.90;;;;;;5013804;28;20224;-76
2021/03/29 02:22:57;;;;;;;3.23;2.83;;;5.80;99.90;;;;;;5014312;28;20265;-75
2021/03/29 02:25:26;;;;;;;6.03;2.87;;;5.70;99.90;;;;;;5014210;28;20309;-76
2021/03/29 02:27:52;;;;;;;2.63;2.27;;;5.70;99.90;;;;;;5012977;28;20214;-76
2021/03/29 02:30:24;;;;;;;3.63;2.43;;;5.70;99.90;;;;;;5012879;28;20244;-77
2021/03/29 02:32:51;;;;;;;3.67;2.37;;;5.70;99.90;;;;;;5008519;28;20577;-76
2021/03/29 02:35:20;;;;;;;4.33;2.47;;;5.60;99.90;;;;;;4995777;28;20261;-76
2021/03/29 02:37:48;;;;;;;5.03;3.10;;;5.60;99.90;;;;;;5001121;28;20228;-76
2021/03/29 02:40:16;;;;;;;3.13;2.60;;;5.50;99.90;;;;;;5013912;28;20645;-76
2021/03/29 02:42:42;;;;;;;5.13;2.70;;;5.50;99.90;;;;;;5012697;28;20240;-76
2021/03/29 02:45:10;;;;;;;3.50;2.70;;;5.50;99.90;;;;;;5013830;28;20313;-76
2021/03/29 02:47:41;;;;;;;5.83;3.50;;;5.50;99.90;;;;;;5012972;28;20220;-76
2021/03/29 02:50:10;;;;;;;4.53;2.50;;;5.50;99.90;;;;;;5013685;28;20201;-76
2021/03/29 02:52:37;;;;;;;5.53;2.83;;;5.40;99.90;;;;;;5012354;28;20557;-76
2021/03/29 02:55:08;;;;;;;3.70;2.90;;;5.20;99.90;;;;;;5012236;28;20206;-76
2021/03/29 02:57:38;;;;;;;3.27;2.60;;;5.20;99.90;;;;;;5011514;28;20197;-76
2021/03/29 03:00:15;;;;;;;4.47;2.27;;;5.30;99.90;;;;;;4996636;28;20195;-76
2021/03/29 03:02:43;;;;;;;4.13;3.10;;;5.20;99.90;;;;;;4994479;28;20182;-77
2021/03/29 03:05:11;;;;;;;3.20;2.60;;;5.10;99.90;;;;;;4995208;28;20260;-77
2021/03/29 03:07:38;;;;;;;4.17;2.60;;;5.00;99.90;;;;;;4993266;28;20209;-77
2021/03/29 03:10:10;;;;;;;5.00;2.80;;;5.20;99.90;;;;;;4993221;28;20219;-77
2021/03/29 03:12:40;;;;;;;7.73;2.43;;;5.10;99.90;;;;;;4994112;28;20213;-76
2021/03/29 03:15:08;;;;;;;3.47;2.37;;;5.20;99.90;;;;;;4995082;28;20312;-76
2021/03/29 03:17:35;;;;;;;3.97;2.70;;;5.20;99.90;;;;;;4994328;28;20189;-76
2021/03/29 03:20:02;;;;;;;4.77;2.90;;;5.20;99.90;;;;;;4994912;28;20645;-76
2021/03/29 03:22:28;;;;;;;3.63;2.57;;;5.20;99.90;;;;;;4995218;28;20544;-76
2021/03/29 03:24:54;;;;;;;5.07;2.70;;;5.20;99.90;;;;;;4994850;28;20218;-76
2021/03/29 03:27:20;;;;;;;3.87;2.97;;;5.30;99.90;;;;;;4995028;28;20197;-76
2021/03/29 03:29:46;;;;;;;5.13;2.77;;;5.20;99.90;;;;;;4994344;28;20213;-76
2021/03/29 03:32:15;;;;;;;5.50;2.87;;;5.20;99.90;;;;;;4993924;28;20539;-76
2021/03/29 03:34:42;;;;;;;3.10;2.70;;;5.20;99.90;;;;;;4994140;28;20279;-76
2021/03/29 03:37:15;;;;;;;2.97;2.20;;;5.30;99.90;;;;;;4989762;28;20188;-76
2021/03/29 03:39:48;;;;;;;4.33;2.53;;;5.10;99.90;;;;;;5001422;28;20186;-77
2021/03/29 03:42:14;;;;;;;3.83;2.93;;;5.10;99.90;;;;;;5015523;28;20252;-77
2021/03/29 03:44:40;;;;;;;4.23;2.47;;;5.00;99.90;;;;;;5013862;28;20200;-77
2021/03/29 03:47:09;;;;;;;4.67;2.50;;;5.00;99.90;;;;;;5013070;28;20243;-76
2021/03/29 03:49:38;;;;;;;4.27;2.83;;;4.80;99.90;;;;;;5013174;28;20644;-77
2021/03/29 03:52:04;;;;;;;3.17;2.73;;;4.70;99.90;;;;;;5012868;28;20189;-76
2021/03/29 03:54:31;;;;;;;4.63;2.80;;;4.70;99.90;;;;;;5005182;28;20228;-76
2021/03/29 03:56:57;;;;;;;3.47;2.80;;;4.70;99.90;;;;;;5011183;28;20212;-76
2021/03/29 03:59:25;;;;;;;3.83;3.00;;;4.60;99.90;;;;;;5012571;28;20604;-76
2021/03/29 04:02:06;;;;;;;3.90;2.83;;;4.60;99.90;;;;;;4992360;28;20190;-76
2021/03/29 04:04:32;;;;;;;3.27;2.53;;;4.70;99.90;;;;;;4989643;28;20199;-76
2021/03/29 04:06:59;;;;;;;2.63;2.43;;;4.70;99.90;;;;;;5004230;28;20269;-77
2021/03/29 04:12:06;;;;;;;4.67;2.60;;;4.70;99.90;;;;;;5013865;28;20205;-76
2021/03/29 04:14:32;;;;;;;5.20;2.33;;;4.60;99.90;;;;;;5014680;28;20216;-76
2021/03/29 04:16:57;;;;;;;4.67;2.70;;;4.70;99.90;;;;;;5001457;28;20184;-76
2021/03/29 04:19:23;;;;;;;4.20;2.60;;;4.70;99.90;;;;;;5011225;28;20184;-76
2021/03/29 04:21:49;;;;;;;3.60;2.50;;;4.70;99.90;;;;;;5012692;28;20180;-75
2021/03/29 04:24:14;;;;;;;5.10;2.80;;;4.70;99.90;;;;;;5012130;28;20186;-75
2021/03/29 04:26:42;;;;;;;4.27;2.70;;;4.60;99.90;;;;;;5003745;28;20205;-76
2021/03/29 04:29:08;;;;;;;4.77;3.20;;;4.60;99.90;;;;;;5008457;28;20173;-76
2021/03/29 04:31:33;;;;;;;13.50;3.30;;;4.50;99.90;;;;;;5012237;28;20189;-76
2021/03/29 04:33:59;;;;;;;3.10;2.67;;;4.40;99.90;;;;;;5012275;28;20553;-76
2021/03/29 04:36:25;;;;;;;5.83;2.93;;;4.30;99.90;;;;;;5012229;28;20897;-75
2021/03/29 04:38:51;;;;;;;3.03;2.33;;;4.20;99.90;;;;;;5012605;28;20186;-75
2021/03/29 04:41:16;;;;;;;3.93;2.80;;;4.20;99.90;;;;;;4990900;28;20215;-75
2021/03/29 04:43:42;;;;;;;6.30;2.63;;;4.10;99.90;;;;;;5012000;28;20185;-75
2021/03/29 04:46:08;;;;;;;4.73;2.77;;;4.10;99.90;;;;;;5012141;28;20693;-75
2021/03/29 04:48:34;;;;;;;3.10;2.63;;;4.10;99.90;;;;;;5012459;28;20173;-75
2021/03/29 04:51:00;;;;;;;3.43;2.63;;;4.00;99.90;;;;;;5011970;28;20222;-75
2021/03/29 04:53:26;;;;;;;8.23;3.10;;;3.90;99.90;;;;;;4981911;28;20193;-75
2021/03/29 04:55:51;;;;;;;10.10;2.90;;;3.70;99.90;;;;;;4979897;28;20204;-75
2021/03/29 04:58:17;;;;;;;5.33;2.83;;;3.70;99.90;;;;;;4997835;28;20209;-75
2021/03/29 05:00:43;;;;;;;6.90;2.70;;;3.60;99.90;;;;;;4997788;28;20192;-76
2021/03/29 05:03:09;;;;;;;6.33;2.63;;;3.70;99.90;;;;;;4993726;28;20192;-74
2021/03/29 05:05:34;;;;;;;6.43;3.20;;;3.80;99.90;;;;;;5011939;28;20208;-75
2021/03/29 05:08:00;;;;;;;5.80;2.63;;;3.90;99.90;;;;;;5003463;28;20206;-75
2021/03/29 05:10:26;;;;;;;3.43;2.67;;;3.90;99.90;;;;;;4998324;28;20182;-75
2021/03/29 05:12:52;;;;;;;7.37;3.17;;;3.90;99.90;;;;;;5011971;28;20245;-75
2021/03/29 05:15:17;;;;;;;3.43;3.10;;;4.00;99.90;;;;;;4999547;28;20210;-75
2021/03/29 05:17:43;;;;;;;3.13;2.67;;;4.00;99.90;;;;;;4997159;28;20193;-75
2021/03/29 05:20:10;;;;;;;5.20;2.93;;;4.00;99.90;;;;;;5011595;28;20557;-75
2021/03/29 05:22:36;;;;;;;4.73;3.13;;;4.10;99.90;;;;;;4992230;28;20187;-75
2021/03/29 05:25:03;;;;;;;5.63;3.17;;;4.00;99.90;;;;;;5015593;28;20319;-75
2021/03/29 05:27:29;;;;;;;8.33;3.07;;;4.00;99.90;;;;;;5015181;28;20568;-74
2021/03/29 05:29:54;;;;;;;5.27;2.80;;;4.00;99.90;;;;;;5014472;28;20193;-75
2021/03/29 05:32:25;;;;;;;5.80;3.33;;;3.90;99.90;;;;;;5014557;28;20316;-74
2021/03/29 05:34:55;;;;;;;4.13;2.67;;;3.90;99.90;;;;;;5015168;28;20243;-74
2021/03/29 05:37:21;;;;;;;8.87;3.23;;;3.80;99.90;;;;;;5015124;28;20189;-74
2021/03/29 05:42:25;;;;;;;6.40;3.40;;;3.80;99.90;;;;;;5076186;22;20685;-78
2021/03/29 05:44:53;;;;;;;5.53;3.20;;;3.90;99.90;;;;;;5026861;28;20199;-78
2021/03/29 05:47:20;;;;;;;6.20;3.10;;;4.00;99.90;;;;;;5029801;28;20272;-77
2021/03/29 05:49:46;;;;;;;6.27;3.20;;;4.10;99.90;;;;;;5028236;28;20178;-78
2021/03/29 05:52:11;;;;;;;7.87;3.30;;;4.20;99.90;;;;;;5030917;28;20192;-78
2021/03/29 05:54:39;;;;;;;6.37;3.73;;;4.20;99.90;;;;;;5033834;28;20176;-77
2021/03/29 05:57:05;;;;;;;6.40;3.23;;;4.30;99.90;;;;;;5025287;28;20268;-78
2021/03/29 05:59:40;;;;;;;4.60;3.83;;;4.30;99.90;;;;;;5037015;28;20174;-78
2021/03/29 06:02:07;;;;;;;4.50;3.27;;;4.40;99.90;;;;;;5035661;28;20235;-78
2021/03/29 06:04:49;;;;;;;11.13;3.77;;;4.40;99.90;;;;;;5037279;28;20180;-76
2021/03/29 06:07:23;;;;;;;5.50;3.27;;;4.40;99.90;;;;;;5033193;28;20581;-78
2021/03/29 06:09:51;;;;;;;8.40;4.47;;;4.50;99.90;;;;;;5037000;28;20677;-78
2021/03/29 06:12:19;;;;;;;9.30;5.17;;;4.60;99.90;;;;;;5036932;28;20549;-78
2021/03/29 06:14:46;;;;;;;5.83;4.23;;;4.60;99.90;;;;;;5036724;28;20172;-76
2021/03/29 06:17:14;;;;;;;6.00;4.30;;;4.60;99.90;;;;;;5037176;28;20203;-78
2021/03/29 06:19:47;;;;;;;5.97;4.20;;;4.70;99.90;;;;;;5010585;28;20176;-78
2021/03/29 06:22:23;;;;;;;5.70;3.97;;;4.80;99.90;;;;;;5037886;28;20197;-78
2021/03/29 06:24:54;;;;;;;8.37;4.17;;;4.80;99.90;;;;;;5035251;28;20182;-77
2021/03/29 06:27:22;;;;;;;6.40;3.97;;;4.90;99.90;;;;;;5036297;28;20596;-78
2021/03/29 06:29:49;;;;;;;9.33;4.80;;;4.90;99.90;;;;;;5036772;28;20238;-78
2021/03/29 06:32:19;;;;;;;5.70;3.87;;;5.00;99.90;;;;;;5036645;28;20200;-78
2021/03/29 06:34:46;;;;;;;5.43;4.03;;;5.10;99.90;;;;;;5034698;28;20168;-78
2021/03/29 06:37:12;;;;;;;6.13;4.20;;;5.10;99.90;;;;;;5036393;28;20208;-77
2021/03/29 06:39:38;;;;;;;8.13;4.87;;;5.20;99.90;;;;;;5036234;28;20203;-78
2021/03/29 06:42:05;;;;;;;5.77;4.10;;;5.40;99.90;;;;;;5036671;28;20251;-78
2021/03/29 06:44:33;;;;;;;5.13;4.47;;;5.50;99.90;;;;;;5024907;28;20643;-78
2021/03/29 06:47:14;;;;;;;4.97;4.27;;;5.60;99.90;;;;;;5036593;28;20228;-78
2021/03/29 06:49:50;;;;;;;6.73;4.77;;;5.60;99.90;;;;;;5036265;28;20166;-78
2021/03/29 06:52:24;;;;;;;6.57;4.07;;;5.70;99.90;;;;;;5036364;28;20194;-78
2021/03/29 06:54:51;;;;;;;8.30;4.07;;;5.60;99.90;;;;;;5035060;28;20169;-78
2021/03/29 06:57:29;;;;;;;6.53;4.03;;;5.50;99.90;;;;;;5036527;28;20205;-78
2021/03/29 06:59:55;;;;;;;6.87;4.57;;;5.60;99.90;;;;;;5035657;28;20253;-78
2021/03/29 07:02:42;;;;;;;7.13;5.10;;;5.70;99.90;;;;;;5036131;28;20186;-78
2021/03/29 07:05:09;;;;;;;6.17;5.23;;;5.70;99.90;;;;;;5035120;28;20182;-78
2021/03/29 07:07:37;;;;;;;10.50;5.43;;;5.80;99.90;;;;;;5035389;28;20197;-78
2021/03/29 07:10:04;;;;;;;8.53;5.20;;;5.80;99.90;;;;;;5036010;28;20178;-78
2021/03/29 07:12:37;;;;;;;10.37;5.87;;;5.90;99.90;;;;;;5036190;28;20652;-78
2021/03/29 07:15:11;;;;;;;9.57;5.57;;;6.00;99.90;;;;;;5034993;28;20180;-78
2021/03/29 07:17:42;;;;;;;8.37;6.00;;;6.20;99.90;;;;;;5036722;28;20170;-78
2021/03/29 07:20:11;;;;;;;11.70;6.30;;;6.30;99.90;;;;;;5035646;28;20190;-78
2021/03/29 07:22:38;;;;;;;7.73;4.43;;;6.40;99.90;;;;;;5035117;28;20242;-78
2021/03/29 07:25:08;;;;;;;9.67;4.20;;;6.50;99.90;;;;;;5035954;28;20656;-78
2021/03/29 07:27:40;;;;;;;7.13;4.47;;;6.70;99.90;;;;;;5037132;28;20205;-78
2021/03/29 07:30:07;;;;;;;11.00;4.17;;;6.80;99.90;;;;;;5036149;28;20213;-78
2021/03/29 07:32:36;;;;;;;9.17;4.70;;;6.90;99.90;;;;;;5037005;28;20167;-78
2021/03/29 07:35:04;;;;;;;11.33;4.67;;;7.00;99.90;;;;;;5036470;28;20170;-78
2021/03/29 07:37:36;;;;;;;8.37;4.77;;;7.20;99.90;;;;;;5037214;28;20205;-77
2021/03/29 07:40:22;;;;;;;7.07;5.13;;;7.10;99.90;;;;;;5036088;28;20166;-78
2021/03/29 07:42:53;;;;;;;10.90;5.20;;;7.20;99.90;;;;;;5025813;28;20194;-78
2021/03/29 07:45:34;;;;;;;7.20;4.83;;;7.20;99.90;;;;;;5021053;28;20197;-79
2021/03/29 07:48:01;;;;;;;8.07;5.00;;;7.30;99.90;;;;;;5031248;28;20209;-78
2021/03/29 07:50:30;;;;;;;6.13;4.73;;;7.50;99.90;;;;;;5035810;28;20190;-78
2021/03/29 07:53:05;;;;;;;7.70;5.13;;;7.40;99.90;;;;;;5032693;28;20675;-78
2021/03/29 07:55:50;;;;;;;5.43;4.87;;;7.50;99.90;;;;;;5034405;28;20170;-78
2021/03/29 07:58:21;;;;;;;9.10;5.47;;;7.60;99.90;;;;;;5033694;28;20167;-78
2021/03/29 08:00:50;;;;;;;9.87;5.80;;;7.70;99.90;;;;;;5023317;28;20624;-78
2021/03/29 08:03:15;;;;;;;10.00;6.40;;;7.90;99.90;;;;;;5027120;28;20202;-78
2021/03/29 08:05:46;;;;;;;11.07;6.47;;;7.90;99.90;;;;;;5033862;28;20190;-77
2021/03/29 08:08:27;;;;;;;12.87;7.13;;;7.90;99.90;;;;;;5034473;28;20207;-78
2021/03/29 08:11:06;;;;;;;15.60;7.13;;;8.00;99.90;;;;;;5034373;28;20195;-78
2021/03/29 08:13:53;;;;;;;15.00;7.70;;;8.20;99.90;;;;;;5033642;28;20174;-78
2021/03/29 08:16:21;;;;;;;17.33;7.40;;;8.30;99.90;;;;;;5034160;28;20600;-78
2021/03/29 08:19:19;;;;;;;10.93;6.90;;;8.40;99.90;;;;;;5033716;28;20165;-78
2021/03/29 08:22:08;;;;;;;14.13;7.30;;;8.50;99.90;;;;;;5034023;28;20539;-78
2021/03/29 08:24:40;;;;;;;10.97;7.20;;;8.70;99.90;;;;;;5034295;28;20167;-78
2021/03/29 08:27:29;;;;;;;10.87;7.20;;;8.80;99.90;;;;;;5034497;28;20189;-78
2021/03/29 08:30:10;;;;;;;9.80;7.13;;;8.90;99.90;;;;;;5033954;28;20172;-78
2021/03/29 08:32:40;;;;;;;10.63;7.37;;;8.90;99.90;;;;;;5033834;28;20169;-78
2021/03/29 08:35:12;;;;;;;11.47;7.67;;;9.00;99.90;;;;;;5032625;28;20170;-78
2021/03/29 08:38:08;;;;;;;15.60;7.80;;;9.20;99.90;;;;;;5033096;28;20208;-78
2021/03/29 08:40:34;;;;;;;11.43;7.33;;;9.20;99.90;;;;;;5024411;28;20713;-78
2021/03/29 08:43:10;;;;;;;11.70;7.13;;;9.30;99.90;;;;;;5032621;28;20193;-78
2021/03/29 08:45:36;;;;;;;15.57;7.47;;;9.40;99.90;;;;;;5018099;28;20181;-78
2021/03/29 08:48:05;;;;;;;15.50;8.07;;;9.40;99.90;;;;;;5033920;28;20207;-78
2021/03/29 08:50:38;;;;;;;16.70;8.10;;;9.50;99.90;;;;;;5033636;28;20244;-78
2021/03/29 08:53:10;;;;;;;13.97;8.00;;;9.70;99.90;;;;;;5037560;28;20169;-78
2021/03/29 08:55:41;;;;;;;9.97;5.70;;;9.80;99.90;;;;;;5037796;28;20197;-78
2021/03/29 08:58:08;;;;;;;10.60;7.00;;;9.80;99.90;;;;;;5037774;28;20189;-78
2021/03/29 09:00:44;;;;;;;10.30;6.90;;;9.90;99.90;;;;;;5037557;28;20197;-77
2021/03/29 09:03:20;;;;;;;7.70;5.20;;;10.00;99.90;;;;;;5037811;28;20177;-78
2021/03/29 09:05:47;;;;;;;4.80;4.07;;;10.10;99.90;;;;;;5036261;28;20174;-78
2021/03/29 09:08:13;;;;;;;6.07;4.67;;;10.20;99.90;;;;;;5035970;28;20713;-78
2021/03/29 09:10:42;;;;;;;10.40;4.53;;;10.20;99.90;;;;;;5035574;28;20201;-78
2021/03/29 09:13:15;;;;;;;4.83;3.90;;;10.30;99.90;;;;;;5036895;28;20180;-77
2021/03/29 09:15:44;;;;;;;6.27;3.97;;;10.50;99.90;;;;;;5037161;28;20198;-78
2021/03/29 09:18:15;;;;;;;4.63;3.60;;;10.70;99.90;;;;;;5037019;28;20182;-78
2021/03/29 09:20:49;;;;;;;9.80;4.90;;;10.70;99.90;;;;;;5036404;28;20194;-77
2021/03/29 09:23:19;;;;;;;6.43;3.97;;;10.80;99.90;;;;;;5035260;28;20174;-78
2021/03/29 09:25:47;;;;;;;6.57;4.50;;;11.00;99.90;;;;;;5036401;28;20182;-78
2021/03/29 09:30:58;;;;;;;9.33;5.70;;;11.10;99.90;;;;;;5036036;28;20674;-79
2021/03/29 09:33:24;;;;;;;9.73;5.57;;;11.30;99.90;;;;;;5040545;28;20178;-81
2021/03/29 09:35:52;;;;;;;4.37;3.50;;;11.50;99.90;;;;;;5038184;28;20225;-80
2021/03/29 09:38:33;;;;;;;8.47;3.40;;;11.60;99.90;;;;;;5025910;28;20170;-81
2021/03/29 09:40:59;;;;;;;3.67;3.37;;;11.80;99.90;;;;;;5013634;28;20607;-81
2021/03/29 09:43:26;;;;;;;4.33;3.10;;;11.90;99.90;;;;;;5037989;28;20765;-81
2021/03/29 09:46:05;;;;;;;8.53;4.83;;;12.00;99.90;;;;;;5034297;28;20174;-81
2021/03/29 09:48:32;;;;;;;6.77;4.00;;;12.10;99.90;;;;;;5045006;28;20198;-81
2021/03/29 09:50:58;;;;;;;4.00;3.13;;;12.30;99.90;;;;;;5030923;28;20195;-81
2021/03/29 09:53:32;;;;;;;6.77;3.63;;;12.40;99.90;;;;;;5042278;28;20256;-82
2021/03/29 09:55:58;;;;;;;4.27;3.57;;;12.40;99.90;;;;;;5025717;28;20183;-81
2021/03/29 09:58:37;;;;;;;3.87;3.33;;;12.40;99.90;;;;;;5037016;28;20530;-81
2021/03/29 10:01:05;;;;;;;5.60;4.20;;;12.50;99.90;;;;;;5025090;28;20615;-82
2021/03/29 10:03:31;;;;;;;8.07;4.47;;;12.50;99.90;;;;;;5021954;28;20195;-81
2021/03/29 10:05:57;;;;;;;6.33;3.83;;;12.60;99.90;;;;;;5042297;28;20189;-80
2021/03/29 10:08:34;;;;;;;4.77;3.47;;;12.70;99.90;;;;;;5040716;28;20198;-80
2021/03/29 10:11:06;;;;;;;5.87;4.20;;;12.80;99.90;;;;;;5039543;28;20284;-80
2021/03/29 10:13:41;;;;;;;5.10;3.63;;;12.90;99.90;;;;;;5041496;28;20171;-82
2021/03/29 10:16:27;;;;;;;8.33;5.03;;;13.00;99.90;;;;;;5039798;28;20173;-81
2021/03/29 10:19:08;;;;;;;5.63;4.20;;;13.20;99.90;;;;;;5016050;28;20175;-81
2021/03/29 10:21:54;;;;;;;4.83;3.43;;;13.30;99.90;;;;;;5020380;28;20217;-81
2021/03/29 10:24:20;;;;;;;4.20;3.70;;;13.50;99.90;;;;;;5024965;28;20172;-83
2021/03/29 10:26:54;;;;;;;6.57;3.47;;;13.60;99.90;;;;;;5013674;28;20282;-81
2021/03/29 10:29:39;;;;;;;4.20;3.80;;;13.60;99.90;;;;;;5018566;28;20190;-80
2021/03/29 10:32:15;;;;;;;6.33;4.23;;;13.70;99.90;;;;;;5014615;28;20226;-81
2021/03/29 10:34:43;;;;;;;5.27;4.23;;;13.70;99.90;;;;;;5024740;28;20167;-80
2021/03/29 10:37:28;;;;;;;8.87;5.03;;;13.90;99.90;;;;;;5016162;28;20187;-80
2021/03/29 10:39:57;;;;;;;6.40;4.30;;;13.90;99.90;;;;;;5018369;28;20178;-81
2021/03/29 10:42:26;;;;;;;5.20;4.03;;;13.90;99.90;;;;;;5012559;28;20266;-80
2021/03/29 10:44:54;;;;;;;3.30;3.00;;;14.20;99.90;;;;;;5014064;28;20250;-81
2021/03/29 10:47:20;;;;;;;4.50;3.70;;;14.40;99.90;;;;;;5013350;28;20291;-81
2021/03/29 10:49:46;;;;;;;4.40;3.40;;;14.60;99.90;;;;;;5017830;28;20650;-82
2021/03/29 10:52:12;;;;;;;4.77;4.20;;;14.80;99.90;;;;;;5028813;28;20302;-81
2021/03/29 10:54:38;;;;;;;5.33;3.40;;;14.90;99.90;;;;;;5022818;28;20632;-82
2021/03/29 10:57:04;;;;;;;7.00;4.70;;;14.80;99.90;;;;;;5030054;28;20199;-81
2021/03/29 10:59:30;;;;;;;8.40;4.43;;;15.00;99.90;;;;;;5020368;28;20688;-82
2021/03/29 11:01:57;;;;;;;5.57;3.80;;;15.00;99.90;;;;;;5025887;28;20245;-81
2021/03/29 11:04:22;;;;;;;5.60;4.97;;;15.10;99.90;;;;;;5042780;28;20631;-81
2021/03/29 11:06:48;;;;;;;10.07;6.60;;;15.50;99.90;;;;;;5040629;28;20206;-81
2021/03/29 11:09:14;;;;;;;6.70;3.33;;;15.60;99.90;;;;;;5042237;28;20175;-82
2021/03/29 11:11:40;;;;;;;5.53;4.47;;;15.60;99.90;;;;;;5034219;28;20269;-81
2021/03/29 11:14:06;;;;;;;8.00;5.50;;;15.50;99.90;;;;;;5021527;28;20178;-81
2021/03/29 11:16:33;;;;;;;7.60;4.47;;;15.50;99.90;;;;;;5037783;28;20210;-81
2021/03/29 11:18:59;;;;;;;5.73;3.80;;;15.50;99.90;;;;;;5016485;28;20190;-81
2021/03/29 11:21:25;;;;;;;5.47;4.47;;;15.50;99.90;;;;;;5020669;28;20214;-81
2021/03/29 11:23:51;;;;;;;3.70;3.33;;;15.60;99.90;;;;;;5043619;28;20238;-82
2021/03/29 11:26:17;;;;;;;4.57;3.03;;;15.80;99.90;;;;;;5040116;28;20223;-81
2021/03/29 11:28:43;;;;;;;4.03;3.13;;;16.00;99.90;;;;;;5040174;28;20173;-82
2021/03/29 11:31:09;;;;;;;3.07;2.60;;;16.10;99.90;;;;;;5020838;28;20199;-82
2021/03/29 11:33:34;;;;;;;3.70;2.90;;;16.30;99.90;;;;;;5025552;28;20184;-81
2021/03/29 11:36:01;;;;;;;5.13;3.20;;;16.40;98.80;;;;;;5030281;28;20245;-82
2021/03/29 11:38:27;;;;;;;4.20;3.13;;;16.30;98.80;;;;;;5013888;28;20359;-81
2021/03/29 11:40:54;;;;;;;4.73;3.70;;;16.40;99.90;;;;;;5025921;28;20268;-81
2021/03/29 11:43:21;;;;;;;4.80;3.27;;;16.40;98.10;;;;;;5011409;28;20212;-82
2021/03/29 11:45:47;;;;;;;6.80;3.73;;;16.70;99.60;;;;;;5024473;28;20186;-82
2021/03/29 11:48:13;;;;;;;6.27;3.80;;;16.70;96.30;;;;;;5041172;28;20201;-82
2021/03/29 11:50:38;;;;;;;3.83;2.43;;;17.00;97.30;;;;;;5039682;28;20209;-81
2021/03/29 11:53:04;;;;;;;4.70;3.43;;;17.30;96.40;;;;;;5040553;28;20229;-83
2021/03/29 11:55:30;;;;;;;5.80;4.33;;;17.50;95.80;;;;;;5042686;28;20170;-82
2021/03/29 11:57:56;;;;;;;5.80;3.30;;;17.60;94.90;;;;;;5039339;28;20186;-82
2021/03/29 12:02:59;;;;;;;2.87;2.40;;;17.80;96.80;;;;;;5023434;28;20215;-82
2021/03/29 12:05:30;;;;;;;3.33;2.40;;;17.90;93.00;;;;;;5001838;28;20273;-81
2021/03/29 12:08:12;;;;;;;2.47;2.03;;;18.00;92.10;;;;;;5006146;28;20199;-82
2021/03/29 12:13:22;;;;;;;3.30;2.70;;;18.10;93.20;;;;;;5011231;28;20704;-81
2021/03/29 12:15:52;;;;;;;5.80;3.70;;;18.10;95.20;;;;;;5016556;28;20175;-81
2021/03/29 12:18:41;;;;;;;5.03;3.90;;;18.10;90.80;;;;;;5009765;28;20210;-82
2021/03/29 12:21:11;;;;;;;2.50;1.90;;;17.90;90.70;;;;;;5030138;28;20206;-81
2021/03/29 12:23:40;;;;;;;3.47;1.87;;;17.90;87.80;;;;;;5046042;28;20182;-81
2021/03/29 12:26:06;;;;;;;3.67;1.97;;;18.10;85.30;;;;;;5046072;28;20205;-82
2021/03/29 12:28:34;;;;;;;3.80;2.57;;;18.00;84.80;;;;;;5047979;28;20193;-82
2021/03/29 12:31:00;;;;;;;2.27;2.03;;;18.00;80.40;;;;;;5046914;28;20198;-81
2021/03/29 12:33:29;;;;;;;4.33;2.53;;;18.00;80.50;;;;;;5047947;28;20200;-83
2021/03/29 12:35:57;;;;;;;3.40;2.13;;;18.00;79.10;;;;;;5048595;28;20237;-81
2021/03/29 12:38:25;;;;;;;1.67;1.57;;;17.90;82.10;;;;;;5049001;28;20198;-82
2021/03/29 12:40:56;;;;;;;2.97;1.80;;;18.10;85.00;;;;;;5047974;28;20605;-82
2021/03/29 12:43:46;;;;;;;4.03;2.10;;;18.40;88.10;;;;;;5041237;28;20265;-81
2021/03/29 12:46:17;;;;;;;3.17;2.53;;;18.50;76.40;;;;;;5020230;28;20182;-81
2021/03/29 12:48:43;;;;;;;4.47;3.20;;;18.40;76.30;;;;;;5028517;28;20183;-81
2021/03/29 12:51:09;;;;;;;2.13;1.63;;;18.30;74.90;;;;;;5026744;28;20207;-82
2021/03/29 12:53:44;;;;;;;4.53;2.03;;;18.50;80.80;;;;;;5015644;28;20240;-82
2021/03/29 12:56:09;;;;;;;4.10;2.80;;;18.70;74.90;;;;;;5020054;28;20198;-82
2021/03/29 12:58:36;;;;;;;5.37;3.30;;;18.90;79.10;;;;;;5041006;28;20183;-81
2021/03/29 13:01:06;;;;;;;7.00;3.10;;;18.90;80.80;;;;;;5040945;28;20206;-82
2021/03/29 13:03:37;;;;;;;4.17;2.70;;;18.90;81.20;;;;;;5042486;28;20521;-82
2021/03/29 13:06:21;;;;;;;3.53;2.23;;;19.00;78.00;;;;;;5031978;28;20186;-82
2021/03/29 13:08:47;;;;;;;5.23;3.57;;;19.00;75.50;;;;;;5027886;28;20849;-81
2021/03/29 13:11:28;;;;;;;7.23;2.93;;;19.00;71.00;;;;;;5040955;28;20195;-80
2021/03/29 13:13:55;;;;;;;5.67;3.77;;;18.90;78.40;;;;;;5042297;28;20671;-81
2021/03/29 13:16:23;;;;;;;8.00;3.53;;;18.80;73.00;;;;;;5041737;28;20185;-82
2021/03/29 13:18:49;;;;;;;5.67;3.40;;;18.70;70.80;;;;;;5041946;28;20239;-81